sensor_id;sensor_type;location;lat;lon;timestamp;P1;durP1;ratioP1;P2;durP2;ratioP2
67997;SDS011;54773;53.388;-1.504;2024-03-06T00:01:05;18.50;;;11.67;;
67997;SDS011;54773;53.388;-1.504;2024-03-06T00:03:50;20.00;;;12.32;;
67997;SDS011;54773;53.388;-1.504;2024-03-06T00:06:34;20.07;;;12.03;;
67997;SDS011;54773;53.388;-1.504;2024-03-06T00:09:18;19.65;;;11.23;;
67997;SDS011;54773;53.388;-1.504;2024-03-06T00:12:02;22.02;;;13.18;;
67997;SDS011;54773;53.388;-1.504;2024-03-06T00:14:46;17.73;;;12.02;;
67997;SDS011;54773;53.388;-1.504;2024-03-06T00:17:30;20.77;;;12.25;;
67997;SDS011;54773;53.388;-1.504;2024-03-06T00:20:15;20.15;;;12.82;;
67997;SDS011;54773;53.388;-1.504;2024-03-06T00:22:59;20.73;;;12.48;;
67997;SDS011;54773;53.388;-1.504;2024-03-06T00:25:42;25.35;;;14.63;;
67997;SDS011;54773;53.388;-1.504;2024-03-06T00:28:26;25.27;;;15.80;;
67997;SDS011;54773;53.388;-1.504;2024-03-06T00:31:10;26.58;;;16.50;;
67997;SDS011;54773;53.388;-1.504;2024-03-06T00:33:54;25.90;;;15.87;;
67997;SDS011;54773;53.388;-1.504;2024-03-06T00:36:39;24.70;;;15.48;;
67997;SDS011;54773;53.388;-1.504;2024-03-06T00:39:23;23.55;;;14.52;;
67997;SDS011;54773;53.388;-1.504;2024-03-06T00:42:08;28.90;;;16.48;;
67997;SDS011;54773;53.388;-1.504;2024-03-06T00:44:53;20.27;;;13.68;;
67997;SDS011;54773;53.388;-1.504;2024-03-06T00:47:38;20.77;;;15.05;;
67997;SDS011;54773;53.388;-1.504;2024-03-06T00:50:21;29.30;;;16.63;;
67997;SDS011;54773;53.388;-1.504;2024-03-06T00:53:06;29.55;;;17.50;;
67997;SDS011;54773;53.388;-1.504;2024-03-06T00:55:50;28.27;;;16.23;;
67997;SDS011;54773;53.388;-1.504;2024-03-06T00:58:34;28.45;;;17.00;;
67997;SDS011;54773;53.388;-1.504;2024-03-06T01:01:18;31.63;;;17.55;;
67997;SDS011;54773;53.388;-1.504;2024-03-06T01:04:02;28.02;;;16.55;;
67997;SDS011;54773;53.388;-1.504;2024-03-06T01:06:46;30.85;;;16.60;;
67997;SDS011;54773;53.388;-1.504;2024-03-06T01:09:30;29.48;;;17.52;;
67997;SDS011;54773;53.388;-1.504;2024-03-06T01:12:14;27.23;;;16.80;;
67997;SDS011;54773;53.388;-1.504;2024-03-06T01:14:58;34.22;;;17.60;;
67997;SDS011;54773;53.388;-1.504;2024-03-06T01:17:42;31.23;;;18.60;;
67997;SDS011;54773;53.388;-1.504;2024-03-06T01:20:25;27.57;;;15.73;;
67997;SDS011;54773;53.388;-1.504;2024-03-06T01:23:10;32.03;;;16.65;;
67997;SDS011;54773;53.388;-1.504;2024-03-06T01:25:54;29.23;;;16.65;;
67997;SDS011;54773;53.388;-1.504;2024-03-06T01:28:38;28.02;;;16.33;;
67997;SDS011;54773;53.388;-1.504;2024-03-06T01:31:22;27.13;;;14.48;;
67997;SDS011;54773;53.388;-1.504;2024-03-06T01:34:06;25.90;;;15.02;;
67997;SDS011;54773;53.388;-1.504;2024-03-06T01:36:50;24.65;;;13.60;;
67997;SDS011;54773;53.388;-1.504;2024-03-06T01:39:34;27.17;;;14.85;;
67997;SDS011;54773;53.388;-1.504;2024-03-06T01:42:19;26.50;;;14.68;;
67997;SDS011;54773;53.388;-1.504;2024-03-06T01:45:03;24.42;;;13.48;;
67997;SDS011;54773;53.388;-1.504;2024-03-06T01:47:48;24.80;;;14.10;;
67997;SDS011;54773;53.388;-1.504;2024-03-06T01:50:34;25.05;;;13.95;;
67997;SDS011;54773;53.388;-1.504;2024-03-06T01:53:18;26.08;;;13.65;;
67997;SDS011;54773;53.388;-1.504;2024-03-06T01:56:03;25.38;;;14.05;;
67997;SDS011;54773;53.388;-1.504;2024-03-06T01:58:47;24.20;;;13.43;;
67997;SDS011;54773;53.388;-1.504;2024-03-06T02:04:16;23.83;;;12.90;;
67997;SDS011;54773;53.388;-1.504;2024-03-06T02:07:02;22.20;;;13.38;;
67997;SDS011;54773;53.388;-1.504;2024-03-06T02:09:46;21.20;;;12.07;;
67997;SDS011;54773;53.388;-1.504;2024-03-06T02:12:30;22.00;;;11.95;;
67997;SDS011;54773;53.388;-1.504;2024-03-06T02:15:14;20.33;;;12.50;;
67997;SDS011;54773;53.388;-1.504;2024-03-06T02:17:58;19.10;;;12.38;;
67997;SDS011;54773;53.388;-1.504;2024-03-06T02:20:48;20.52;;;12.93;;
67997;SDS011;54773;53.388;-1.504;2024-03-06T02:23:34;22.45;;;12.45;;
67997;SDS011;54773;53.388;-1.504;2024-03-06T02:26:18;23.85;;;13.27;;
67997;SDS011;54773;53.388;-1.504;2024-03-06T02:29:02;26.48;;;13.70;;
67997;SDS011;54773;53.388;-1.504;2024-03-06T02:31:49;25.77;;;13.15;;
67997;SDS011;54773;53.388;-1.504;2024-03-06T02:34:33;25.30;;;13.52;;
67997;SDS011;54773;53.388;-1.504;2024-03-06T02:37:17;27.00;;;14.48;;
67997;SDS011;54773;53.388;-1.504;2024-03-06T02:40:02;28.52;;;14.82;;
67997;SDS011;54773;53.388;-1.504;2024-03-06T02:42:46;28.05;;;14.40;;
67997;SDS011;54773;53.388;-1.504;2024-03-06T02:45:31;27.83;;;12.88;;
67997;SDS011;54773;53.388;-1.504;2024-03-06T02:48:14;23.10;;;12.53;;
67997;SDS011;54773;53.388;-1.504;2024-03-06T02:50:59;23.23;;;12.80;;
67997;SDS011;54773;53.388;-1.504;2024-03-06T02:53:43;27.08;;;12.57;;
67997;SDS011;54773;53.388;-1.504;2024-03-06T02:56:27;26.47;;;12.80;;
67997;SDS011;54773;53.388;-1.504;2024-03-06T02:59:11;25.63;;;12.32;;
67997;SDS011;54773;53.388;-1.504;2024-03-06T03:01:55;26.55;;;13.95;;
67997;SDS011;54773;53.388;-1.504;2024-03-06T03:04:39;27.13;;;13.85;;
67997;SDS011;54773;53.388;-1.504;2024-03-06T03:07:23;26.63;;;13.18;;
67997;SDS011;54773;53.388;-1.504;2024-03-06T03:10:07;24.23;;;13.13;;
67997;SDS011;54773;53.388;-1.504;2024-03-06T03:12:52;26.08;;;12.43;;
67997;SDS011;54773;53.388;-1.504;2024-03-06T03:15:36;22.52;;;12.35;;
67997;SDS011;54773;53.388;-1.504;2024-03-06T03:18:20;20.98;;;11.13;;
67997;SDS011;54773;53.388;-1.504;2024-03-06T03:21:08;21.30;;;11.25;;
67997;SDS011;54773;53.388;-1.504;2024-03-06T03:23:52;19.00;;;10.27;;
67997;SDS011;54773;53.388;-1.504;2024-03-06T03:26:36;20.40;;;10.35;;
67997;SDS011;54773;53.388;-1.504;2024-03-06T03:29:20;20.38;;;11.15;;
67997;SDS011;54773;53.388;-1.504;2024-03-06T03:32:04;21.93;;;11.50;;
67997;SDS011;54773;53.388;-1.504;2024-03-06T03:34:49;25.40;;;11.60;;
67997;SDS011;54773;53.388;-1.504;2024-03-06T03:37:33;21.60;;;12.52;;
67997;SDS011;54773;53.388;-1.504;2024-03-06T03:40:18;23.45;;;12.85;;
67997;SDS011;54773;53.388;-1.504;2024-03-06T03:43:02;25.13;;;12.65;;
67997;SDS011;54773;53.388;-1.504;2024-03-06T03:45:50;25.92;;;12.30;;
67997;SDS011;54773;53.388;-1.504;2024-03-06T03:48:34;21.60;;;12.55;;
67997;SDS011;54773;53.388;-1.504;2024-03-06T03:51:19;23.30;;;12.90;;
67997;SDS011;54773;53.388;-1.504;2024-03-06T03:54:03;24.67;;;13.63;;
67997;SDS011;54773;53.388;-1.504;2024-03-06T03:56:47;23.20;;;12.32;;
67997;SDS011;54773;53.388;-1.504;2024-03-06T03:59:32;24.60;;;14.25;;
67997;SDS011;54773;53.388;-1.504;2024-03-06T04:02:16;26.58;;;15.52;;
67997;SDS011;54773;53.388;-1.504;2024-03-06T04:05:00;27.92;;;16.23;;
67997;SDS011;54773;53.388;-1.504;2024-03-06T04:07:44;30.73;;;17.90;;
67997;SDS011;54773;53.388;-1.504;2024-03-06T04:10:28;28.20;;;16.42;;
67997;SDS011;54773;53.388;-1.504;2024-03-06T04:13:12;27.85;;;16.58;;
67997;SDS011;54773;53.388;-1.504;2024-03-06T04:15:56;30.42;;;16.90;;
67997;SDS011;54773;53.388;-1.504;2024-03-06T04:18:41;32.47;;;15.90;;
67997;SDS011;54773;53.388;-1.504;2024-03-06T04:21:25;27.67;;;15.90;;
67997;SDS011;54773;53.388;-1.504;2024-03-06T04:24:12;29.33;;;14.27;;
67997;SDS011;54773;53.388;-1.504;2024-03-06T04:26:56;23.27;;;13.10;;
67997;SDS011;54773;53.388;-1.504;2024-03-06T04:29:40;25.47;;;12.83;;
67997;SDS011;54773;53.388;-1.504;2024-03-06T04:32:23;26.67;;;12.00;;
67997;SDS011;54773;53.388;-1.504;2024-03-06T04:35:08;25.05;;;13.55;;
67997;SDS011;54773;53.388;-1.504;2024-03-06T04:37:55;29.90;;;16.17;;
67997;SDS011;54773;53.388;-1.504;2024-03-06T04:40:39;31.60;;;18.40;;
67997;SDS011;54773;53.388;-1.504;2024-03-06T04:43:23;34.13;;;17.63;;
67997;SDS011;54773;53.388;-1.504;2024-03-06T04:46:12;32.00;;;17.40;;
67997;SDS011;54773;53.388;-1.504;2024-03-06T04:48:57;30.58;;;17.08;;
67997;SDS011;54773;53.388;-1.504;2024-03-06T04:51:41;41.03;;;20.73;;
67997;SDS011;54773;53.388;-1.504;2024-03-06T04:54:25;38.55;;;19.38;;
67997;SDS011;54773;53.388;-1.504;2024-03-06T04:57:09;37.78;;;19.83;;
67997;SDS011;54773;53.388;-1.504;2024-03-06T04:59:53;36.43;;;21.27;;
67997;SDS011;54773;53.388;-1.504;2024-03-06T05:02:37;37.23;;;20.40;;
67997;SDS011;54773;53.388;-1.504;2024-03-06T05:05:21;37.75;;;18.80;;
67997;SDS011;54773;53.388;-1.504;2024-03-06T05:08:06;37.45;;;19.08;;
67997;SDS011;54773;53.388;-1.504;2024-03-06T05:10:51;35.85;;;19.42;;
67997;SDS011;54773;53.388;-1.504;2024-03-06T05:13:34;38.58;;;19.55;;
67997;SDS011;54773;53.388;-1.504;2024-03-06T05:16:18;43.97;;;22.42;;
67997;SDS011;54773;53.388;-1.504;2024-03-06T05:19:02;43.30;;;21.83;;
67997;SDS011;54773;53.388;-1.504;2024-03-06T05:21:46;65.43;;;27.25;;
67997;SDS011;54773;53.388;-1.504;2024-03-06T05:24:30;58.63;;;26.42;;
67997;SDS011;54773;53.388;-1.504;2024-03-06T05:27:14;55.38;;;26.17;;
67997;SDS011;54773;53.388;-1.504;2024-03-06T05:30:00;55.70;;;26.70;;
67997;SDS011;54773;53.388;-1.504;2024-03-06T05:32:44;69.88;;;29.25;;
67997;SDS011;54773;53.388;-1.504;2024-03-06T05:35:30;62.85;;;28.10;;
67997;SDS011;54773;53.388;-1.504;2024-03-06T05:38:15;63.47;;;27.42;;
67997;SDS011;54773;53.388;-1.504;2024-03-06T05:40:59;65.57;;;28.27;;
67997;SDS011;54773;53.388;-1.504;2024-03-06T05:43:43;69.20;;;27.13;;
67997;SDS011;54773;53.388;-1.504;2024-03-06T05:46:26;58.05;;;27.50;;
67997;SDS011;54773;53.388;-1.504;2024-03-06T05:49:10;61.05;;;26.73;;
67997;SDS011;54773;53.388;-1.504;2024-03-06T05:51:55;66.20;;;27.15;;
67997;SDS011;54773;53.388;-1.504;2024-03-06T05:54:39;57.00;;;27.80;;
67997;SDS011;54773;53.388;-1.504;2024-03-06T05:57:23;61.75;;;27.60;;
67997;SDS011;54773;53.388;-1.504;2024-03-06T06:00:08;61.70;;;26.95;;
67997;SDS011;54773;53.388;-1.504;2024-03-06T06:02:55;59.78;;;27.73;;
67997;SDS011;54773;53.388;-1.504;2024-03-06T06:05:40;63.13;;;26.90;;
67997;SDS011;54773;53.388;-1.504;2024-03-06T06:08:24;65.72;;;27.38;;
67997;SDS011;54773;53.388;-1.504;2024-03-06T06:11:08;74.07;;;29.73;;
67997;SDS011;54773;53.388;-1.504;2024-03-06T06:13:52;85.55;;;31.00;;
67997;SDS011;54773;53.388;-1.504;2024-03-06T06:16:39;84.25;;;30.08;;
67997;SDS011;54773;53.388;-1.504;2024-03-06T06:19:24;83.55;;;28.95;;
67997;SDS011;54773;53.388;-1.504;2024-03-06T06:22:08;97.22;;;30.23;;
67997;SDS011;54773;53.388;-1.504;2024-03-06T06:24:54;81.03;;;30.20;;
67997;SDS011;54773;53.388;-1.504;2024-03-06T06:27:39;100.15;;;31.45;;
67997;SDS011;54773;53.388;-1.504;2024-03-06T06:30:23;102.97;;;29.27;;
67997;SDS011;54773;53.388;-1.504;2024-03-06T06:33:08;97.30;;;30.00;;
67997;SDS011;54773;53.388;-1.504;2024-03-06T06:38:37;92.97;;;30.27;;
67997;SDS011;54773;53.388;-1.504;2024-03-06T06:41:21;100.03;;;30.77;;
67997;SDS011;54773;53.388;-1.504;2024-03-06T06:44:06;102.20;;;31.25;;
67997;SDS011;54773;53.388;-1.504;2024-03-06T06:46:50;115.40;;;29.57;;
67997;SDS011;54773;53.388;-1.504;2024-03-06T06:49:34;108.28;;;30.08;;
67997;SDS011;54773;53.388;-1.504;2024-03-06T06:52:18;120.93;;;30.47;;
67997;SDS011;54773;53.388;-1.504;2024-03-06T06:55:02;159.25;;;31.52;;
67997;SDS011;54773;53.388;-1.504;2024-03-06T06:57:47;174.70;;;33.67;;
67997;SDS011;54773;53.388;-1.504;2024-03-06T07:00:32;168.95;;;32.97;;
67997;SDS011;54773;53.388;-1.504;2024-03-06T07:03:17;170.75;;;31.33;;
67997;SDS011;54773;53.388;-1.504;2024-03-06T07:06:01;345.85;;;45.83;;
67997;SDS011;54773;53.388;-1.504;2024-03-06T07:08:47;229.68;;;31.83;;
67997;SDS011;54773;53.388;-1.504;2024-03-06T07:11:31;229.43;;;33.75;;
67997;SDS011;54773;53.388;-1.504;2024-03-06T07:14:15;180.65;;;31.75;;
67997;SDS011;54773;53.388;-1.504;2024-03-06T07:16:59;313.27;;;34.63;;
67997;SDS011;54773;53.388;-1.504;2024-03-06T07:19:44;229.63;;;31.20;;
67997;SDS011;54773;53.388;-1.504;2024-03-06T07:22:28;208.07;;;29.65;;
67997;SDS011;54773;53.388;-1.504;2024-03-06T07:25:12;210.05;;;27.35;;
67997;SDS011;54773;53.388;-1.504;2024-03-06T07:27:57;202.48;;;30.58;;
67997;SDS011;54773;53.388;-1.504;2024-03-06T07:30:40;181.13;;;27.90;;
67997;SDS011;54773;53.388;-1.504;2024-03-06T07:33:24;235.47;;;33.43;;
67997;SDS011;54773;53.388;-1.504;2024-03-06T07:36:08;73.47;;;25.67;;
67997;SDS011;54773;53.388;-1.504;2024-03-06T07:38:53;70.55;;;22.40;;
67997;SDS011;54773;53.388;-1.504;2024-03-06T07:41:36;117.33;;;26.07;;
67997;SDS011;54773;53.388;-1.504;2024-03-06T07:44:20;63.72;;;21.05;;
67997;SDS011;54773;53.388;-1.504;2024-03-06T07:47:04;67.75;;;22.33;;
67997;SDS011;54773;53.388;-1.504;2024-03-06T07:49:48;89.83;;;23.83;;
67997;SDS011;54773;53.388;-1.504;2024-03-06T07:52:34;123.30;;;22.88;;
67997;SDS011;54773;53.388;-1.504;2024-03-06T07:55:19;126.25;;;22.65;;
67997;SDS011;54773;53.388;-1.504;2024-03-06T07:58:05;62.60;;;21.58;;
67997;SDS011;54773;53.388;-1.504;2024-03-06T08:00:49;80.40;;;23.42;;
67997;SDS011;54773;53.388;-1.504;2024-03-06T08:03:33;71.15;;;22.58;;
67997;SDS011;54773;53.388;-1.504;2024-03-06T08:06:18;95.20;;;23.58;;
67997;SDS011;54773;53.388;-1.504;2024-03-06T08:09:02;84.50;;;23.98;;
67997;SDS011;54773;53.388;-1.504;2024-03-06T08:11:46;55.42;;;20.08;;
67997;SDS011;54773;53.388;-1.504;2024-03-06T08:14:30;54.67;;;18.63;;
67997;SDS011;54773;53.388;-1.504;2024-03-06T08:17:14;88.18;;;22.20;;
67997;SDS011;54773;53.388;-1.504;2024-03-06T08:19:58;54.40;;;19.92;;
67997;SDS011;54773;53.388;-1.504;2024-03-06T08:22:42;85.37;;;22.27;;
67997;SDS011;54773;53.388;-1.504;2024-03-06T08:25:26;62.20;;;21.00;;
67997;SDS011;54773;53.388;-1.504;2024-03-06T08:28:10;167.03;;;24.37;;
67997;SDS011;54773;53.388;-1.504;2024-03-06T08:30:54;65.88;;;19.58;;
67997;SDS011;54773;53.388;-1.504;2024-03-06T08:33:38;82.68;;;22.55;;
67997;SDS011;54773;53.388;-1.504;2024-03-06T08:36:22;60.55;;;20.70;;
67997;SDS011;54773;53.388;-1.504;2024-03-06T08:39:07;65.22;;;21.77;;
67997;SDS011;54773;53.388;-1.504;2024-03-06T08:41:56;65.60;;;21.33;;
67997;SDS011;54773;53.388;-1.504;2024-03-06T08:44:41;58.70;;;22.23;;
67997;SDS011;54773;53.388;-1.504;2024-03-06T08:47:25;66.90;;;22.87;;
67997;SDS011;54773;53.388;-1.504;2024-03-06T08:50:09;50.20;;;20.48;;
67997;SDS011;54773;53.388;-1.504;2024-03-06T08:52:54;54.38;;;21.95;;
67997;SDS011;54773;53.388;-1.504;2024-03-06T08:55:38;51.88;;;20.83;;
67997;SDS011;54773;53.388;-1.504;2024-03-06T08:58:22;50.78;;;21.13;;
67997;SDS011;54773;53.388;-1.504;2024-03-06T09:01:06;45.58;;;20.90;;
67997;SDS011;54773;53.388;-1.504;2024-03-06T09:03:50;48.72;;;20.33;;
67997;SDS011;54773;53.388;-1.504;2024-03-06T09:06:34;42.08;;;18.08;;
67997;SDS011;54773;53.388;-1.504;2024-03-06T09:09:18;46.43;;;19.07;;
67997;SDS011;54773;53.388;-1.504;2024-03-06T09:12:02;46.03;;;19.60;;
67997;SDS011;54773;53.388;-1.504;2024-03-06T09:14:49;35.30;;;17.75;;
67997;SDS011;54773;53.388;-1.504;2024-03-06T09:17:33;41.78;;;19.27;;
67997;SDS011;54773;53.388;-1.504;2024-03-06T09:20:17;45.85;;;19.00;;
67997;SDS011;54773;53.388;-1.504;2024-03-06T09:23:01;43.05;;;20.50;;
67997;SDS011;54773;53.388;-1.504;2024-03-06T09:25:45;43.63;;;20.15;;
67997;SDS011;54773;53.388;-1.504;2024-03-06T09:28:29;50.03;;;20.65;;
67997;SDS011;54773;53.388;-1.504;2024-03-06T09:31:13;44.45;;;20.45;;
67997;SDS011;54773;53.388;-1.504;2024-03-06T09:33:57;40.23;;;19.27;;
67997;SDS011;54773;53.388;-1.504;2024-03-06T09:36:45;38.42;;;18.55;;
67997;SDS011;54773;53.388;-1.504;2024-03-06T09:39:29;40.47;;;18.23;;
67997;SDS011;54773;53.388;-1.504;2024-03-06T09:42:14;42.40;;;18.13;;
67997;SDS011;54773;53.388;-1.504;2024-03-06T09:50:28;52.88;;;21.70;;
67997;SDS011;54773;53.388;-1.504;2024-03-06T09:53:14;55.10;;;22.85;;
67997;SDS011;54773;53.388;-1.504;2024-03-06T09:55:58;47.60;;;22.35;;
67997;SDS011;54773;53.388;-1.504;2024-03-06T09:58:42;49.63;;;21.38;;
67997;SDS011;54773;53.388;-1.504;2024-03-06T10:01:26;48.00;;;20.02;;
67997;SDS011;54773;53.388;-1.504;2024-03-06T10:04:21;46.20;;;19.50;;
67997;SDS011;54773;53.388;-1.504;2024-03-06T10:07:07;40.35;;;18.05;;
67997;SDS011;54773;53.388;-1.504;2024-03-06T10:09:51;42.63;;;19.45;;
67997;SDS011;54773;53.388;-1.504;2024-03-06T10:12:35;42.17;;;19.40;;
67997;SDS011;54773;53.388;-1.504;2024-03-06T10:15:20;38.22;;;17.98;;
67997;SDS011;54773;53.388;-1.504;2024-03-06T10:20:58;36.30;;;18.02;;
67997;SDS011;54773;53.388;-1.504;2024-03-06T10:23:44;35.05;;;16.40;;
67997;SDS011;54773;53.388;-1.504;2024-03-06T10:26:30;29.70;;;15.85;;
67997;SDS011;54773;53.388;-1.504;2024-03-06T10:29:18;30.98;;;14.65;;
67997;SDS011;54773;53.388;-1.504;2024-03-06T10:32:02;29.52;;;14.55;;
67997;SDS011;54773;53.388;-1.504;2024-03-06T10:34:47;29.20;;;14.70;;
67997;SDS011;54773;53.388;-1.504;2024-03-06T10:37:31;24.83;;;12.87;;
67997;SDS011;54773;53.388;-1.504;2024-03-06T10:40:15;27.30;;;13.85;;
67997;SDS011;54773;53.388;-1.504;2024-03-06T10:43:00;30.00;;;15.00;;
67997;SDS011;54773;53.388;-1.504;2024-03-06T10:45:47;30.58;;;14.93;;
67997;SDS011;54773;53.388;-1.504;2024-03-06T10:48:34;35.78;;;15.45;;
67997;SDS011;54773;53.388;-1.504;2024-03-06T10:51:19;37.47;;;16.73;;
67997;SDS011;54773;53.388;-1.504;2024-03-06T10:54:04;31.63;;;14.70;;
67997;SDS011;54773;53.388;-1.504;2024-03-06T10:56:48;34.90;;;15.55;;
67997;SDS011;54773;53.388;-1.504;2024-03-06T10:59:33;34.35;;;17.23;;
67997;SDS011;54773;53.388;-1.504;2024-03-06T11:02:18;37.20;;;17.88;;
67997;SDS011;54773;53.388;-1.504;2024-03-06T11:05:03;35.25;;;17.33;;
67997;SDS011;54773;53.388;-1.504;2024-03-06T11:07:49;33.30;;;17.77;;
67997;SDS011;54773;53.388;-1.504;2024-03-06T11:10:34;39.85;;;18.58;;
67997;SDS011;54773;53.388;-1.504;2024-03-06T11:16:03;39.47;;;18.58;;
67997;SDS011;54773;53.388;-1.504;2024-03-06T11:18:47;38.55;;;18.17;;
67997;SDS011;54773;53.388;-1.504;2024-03-06T11:21:31;43.17;;;19.77;;
67997;SDS011;54773;53.388;-1.504;2024-03-06T11:27:01;41.80;;;19.30;;
67997;SDS011;54773;53.388;-1.504;2024-03-06T11:30:03;41.10;;;19.13;;
67997;SDS011;54773;53.388;-1.504;2024-03-06T11:33:01;35.60;;;18.58;;
67997;SDS011;54773;53.388;-1.504;2024-03-06T11:39:07;32.95;;;18.40;;
67997;SDS011;54773;53.388;-1.504;2024-03-06T11:41:51;32.35;;;15.48;;
67997;SDS011;54773;53.388;-1.504;2024-03-06T11:44:35;34.88;;;17.48;;
67997;SDS011;54773;53.388;-1.504;2024-03-06T11:47:20;35.70;;;16.65;;
67997;SDS011;54773;53.388;-1.504;2024-03-06T11:50:04;36.10;;;18.30;;
67997;SDS011;54773;53.388;-1.504;2024-03-06T11:52:52;35.25;;;17.80;;
67997;SDS011;54773;53.388;-1.504;2024-03-06T11:55:37;35.17;;;17.85;;
67997;SDS011;54773;53.388;-1.504;2024-03-06T11:58:21;32.40;;;17.08;;
67997;SDS011;54773;53.388;-1.504;2024-03-06T12:01:04;34.13;;;16.63;;
67997;SDS011;54773;53.388;-1.504;2024-03-06T12:03:49;34.13;;;17.83;;
67997;SDS011;54773;53.388;-1.504;2024-03-06T12:06:32;39.37;;;19.13;;
67997;SDS011;54773;53.388;-1.504;2024-03-06T12:09:17;33.70;;;16.70;;
67997;SDS011;54773;53.388;-1.504;2024-03-06T12:12:01;30.45;;;16.33;;
67997;SDS011;54773;53.388;-1.504;2024-03-06T12:14:55;36.17;;;17.27;;
67997;SDS011;54773;53.388;-1.504;2024-03-06T12:20:29;29.35;;;14.98;;
67997;SDS011;54773;53.388;-1.504;2024-03-06T12:23:23;28.00;;;15.83;;
67997;SDS011;54773;53.388;-1.504;2024-03-06T12:26:09;34.20;;;16.67;;
67997;SDS011;54773;53.388;-1.504;2024-03-06T12:29:03;31.98;;;16.73;;
67997;SDS011;54773;53.388;-1.504;2024-03-06T12:31:48;34.58;;;17.63;;
67997;SDS011;54773;53.388;-1.504;2024-03-06T12:34:32;28.35;;;16.00;;
67997;SDS011;54773;53.388;-1.504;2024-03-06T12:37:16;28.65;;;16.83;;
67997;SDS011;54773;53.388;-1.504;2024-03-06T12:40:00;31.27;;;17.38;;
67997;SDS011;54773;53.388;-1.504;2024-03-06T12:42:48;33.60;;;18.45;;
67997;SDS011;54773;53.388;-1.504;2024-03-06T12:45:33;32.03;;;17.90;;
67997;SDS011;54773;53.388;-1.504;2024-03-06T12:48:17;34.63;;;18.55;;
67997;SDS011;54773;53.388;-1.504;2024-03-06T12:51:01;30.25;;;17.15;;
67997;SDS011;54773;53.388;-1.504;2024-03-06T12:53:48;30.25;;;16.67;;
67997;SDS011;54773;53.388;-1.504;2024-03-06T12:56:32;34.42;;;16.52;;
67997;SDS011;54773;53.388;-1.504;2024-03-06T12:59:16;31.50;;;16.23;;
67997;SDS011;54773;53.388;-1.504;2024-03-06T13:02:00;27.90;;;15.43;;
67997;SDS011;54773;53.388;-1.504;2024-03-06T13:04:44;31.55;;;15.73;;
67997;SDS011;54773;53.388;-1.504;2024-03-06T13:07:28;28.63;;;16.00;;
67997;SDS011;54773;53.388;-1.504;2024-03-06T13:10:13;25.98;;;14.32;;
67997;SDS011;54773;53.388;-1.504;2024-03-06T13:12:57;25.60;;;14.03;;
67997;SDS011;54773;53.388;-1.504;2024-03-06T13:15:43;28.65;;;15.48;;
67997;SDS011;54773;53.388;-1.504;2024-03-06T13:18:27;24.25;;;14.55;;
67997;SDS011;54773;53.388;-1.504;2024-03-06T13:21:11;27.05;;;15.50;;
67997;SDS011;54773;53.388;-1.504;2024-03-06T13:23:55;22.95;;;13.75;;
67997;SDS011;54773;53.388;-1.504;2024-03-06T13:26:39;27.45;;;16.25;;
67997;SDS011;54773;53.388;-1.504;2024-03-06T13:29:24;31.58;;;16.65;;
67997;SDS011;54773;53.388;-1.504;2024-03-06T13:32:08;33.45;;;16.85;;
67997;SDS011;54773;53.388;-1.504;2024-03-06T13:34:52;24.40;;;16.20;;
67997;SDS011;54773;53.388;-1.504;2024-03-06T13:37:36;28.50;;;16.73;;
67997;SDS011;54773;53.388;-1.504;2024-03-06T13:40:20;32.50;;;17.27;;
67997;SDS011;54773;53.388;-1.504;2024-03-06T13:43:05;28.35;;;16.25;;
67997;SDS011;54773;53.388;-1.504;2024-03-06T13:45:51;32.38;;;16.65;;
67997;SDS011;54773;53.388;-1.504;2024-03-06T13:48:35;30.42;;;17.67;;
67997;SDS011;54773;53.388;-1.504;2024-03-06T13:51:20;31.60;;;17.33;;
67997;SDS011;54773;53.388;-1.504;2024-03-06T13:54:04;38.40;;;20.13;;
67997;SDS011;54773;53.388;-1.504;2024-03-06T13:56:48;32.95;;;17.75;;
67997;SDS011;54773;53.388;-1.504;2024-03-06T13:59:32;35.67;;;18.88;;
67997;SDS011;54773;53.388;-1.504;2024-03-06T14:02:16;29.20;;;17.33;;
67997;SDS011;54773;53.388;-1.504;2024-03-06T14:05:00;29.38;;;15.63;;
67997;SDS011;54773;53.388;-1.504;2024-03-06T14:07:44;26.83;;;16.27;;
67997;SDS011;54773;53.388;-1.504;2024-03-06T14:10:29;30.80;;;16.27;;
67997;SDS011;54773;53.388;-1.504;2024-03-06T14:13:17;28.42;;;15.40;;
67997;SDS011;54773;53.388;-1.504;2024-03-06T14:16:00;25.98;;;14.48;;
67997;SDS011;54773;53.388;-1.504;2024-03-06T14:18:44;26.35;;;14.32;;
67997;SDS011;54773;53.388;-1.504;2024-03-06T14:21:28;22.20;;;12.77;;
67997;SDS011;54773;53.388;-1.504;2024-03-06T14:24:13;24.60;;;14.68;;
67997;SDS011;54773;53.388;-1.504;2024-03-06T14:26:57;21.48;;;14.45;;
67997;SDS011;54773;53.388;-1.504;2024-03-06T14:29:41;26.83;;;14.07;;
67997;SDS011;54773;53.388;-1.504;2024-03-06T14:32:24;23.40;;;13.87;;
67997;SDS011;54773;53.388;-1.504;2024-03-06T14:35:09;23.33;;;13.93;;
67997;SDS011;54773;53.388;-1.504;2024-03-06T14:37:53;24.57;;;13.77;;
67997;SDS011;54773;53.388;-1.504;2024-03-06T14:40:37;22.50;;;14.20;;
67997;SDS011;54773;53.388;-1.504;2024-03-06T14:43:21;27.17;;;14.05;;
67997;SDS011;54773;53.388;-1.504;2024-03-06T14:46:05;26.90;;;13.73;;
67997;SDS011;54773;53.388;-1.504;2024-03-06T14:48:50;21.73;;;12.80;;
67997;SDS011;54773;53.388;-1.504;2024-03-06T14:51:34;24.52;;;13.95;;
67997;SDS011;54773;53.388;-1.504;2024-03-06T14:54:18;24.80;;;13.18;;
67997;SDS011;54773;53.388;-1.504;2024-03-06T14:57:02;23.38;;;12.95;;
67997;SDS011;54773;53.388;-1.504;2024-03-06T14:59:46;26.08;;;13.73;;
67997;SDS011;54773;53.388;-1.504;2024-03-06T15:02:30;25.15;;;13.15;;
67997;SDS011;54773;53.388;-1.504;2024-03-06T15:05:14;24.77;;;13.65;;
67997;SDS011;54773;53.388;-1.504;2024-03-06T15:07:58;24.05;;;12.98;;
67997;SDS011;54773;53.388;-1.504;2024-03-06T15:10:42;25.92;;;13.82;;
67997;SDS011;54773;53.388;-1.504;2024-03-06T15:13:26;26.47;;;14.63;;
67997;SDS011;54773;53.388;-1.504;2024-03-06T15:16:10;26.33;;;14.27;;
67997;SDS011;54773;53.388;-1.504;2024-03-06T15:18:54;27.20;;;13.82;;
67997;SDS011;54773;53.388;-1.504;2024-03-06T15:21:40;25.75;;;14.70;;
67997;SDS011;54773;53.388;-1.504;2024-03-06T15:24:24;26.52;;;14.45;;
67997;SDS011;54773;53.388;-1.504;2024-03-06T15:27:08;28.83;;;15.65;;
67997;SDS011;54773;53.388;-1.504;2024-03-06T15:29:52;28.33;;;15.70;;
67997;SDS011;54773;53.388;-1.504;2024-03-06T15:32:36;36.92;;;16.63;;
67997;SDS011;54773;53.388;-1.504;2024-03-06T15:35:21;32.90;;;15.80;;
67997;SDS011;54773;53.388;-1.504;2024-03-06T15:38:07;32.45;;;17.05;;
67997;SDS011;54773;53.388;-1.504;2024-03-06T15:40:53;31.00;;;15.75;;
67997;SDS011;54773;53.388;-1.504;2024-03-06T15:43:37;30.58;;;15.15;;
67997;SDS011;54773;53.388;-1.504;2024-03-06T15:46:21;29.77;;;16.33;;
67997;SDS011;54773;53.388;-1.504;2024-03-06T15:49:07;33.58;;;16.15;;
67997;SDS011;54773;53.388;-1.504;2024-03-06T15:52:04;36.35;;;17.08;;
67997;SDS011;54773;53.388;-1.504;2024-03-06T15:54:49;33.42;;;17.13;;
67997;SDS011;54773;53.388;-1.504;2024-03-06T15:57:33;29.98;;;16.15;;
67997;SDS011;54773;53.388;-1.504;2024-03-06T16:00:17;33.05;;;16.05;;
67997;SDS011;54773;53.388;-1.504;2024-03-06T16:03:01;32.45;;;15.27;;
67997;SDS011;54773;53.388;-1.504;2024-03-06T16:05:46;28.38;;;15.63;;
67997;SDS011;54773;53.388;-1.504;2024-03-06T16:08:31;29.45;;;16.02;;
67997;SDS011;54773;53.388;-1.504;2024-03-06T16:11:15;27.63;;;15.18;;
67997;SDS011;54773;53.388;-1.504;2024-03-06T16:13:59;26.67;;;16.17;;